South Aberdeen, Washington
Current Conditions -  °F | °C
As of 12:53 AM on Friday 31 Oct 2014 (Local Time) from KHQM Reporting Station
Haze Haze  
Wind Chill: 11°   Ceiling: 1600
Heat Index: 11°   Visibility: 2mi
Dew Point: 11°   Wind: 0mph
Humidity: 100%   Direction: NA
Pressure: 29.75"   Gusts: NA
Location:  47.1445°N, 123.771°W
Report Text: KHQM 310753Z AUTO 00000KT 2SM BR BKN016 BKN065 OVC110 11/11 A2975 RMK AO2 VIS 1 1/4V3 SLP077 T01110111 401560111
Loading
Personal Weather Stations






























Interactive Weather Map
Tropical Storm Tracking
New forecast layout! Learn more

10-Day Weather Forecast

Advertisements
Track Severe Weather on mobile